Time;durP1;ratioP1;P1;durP2;ratioP2;P2;SDS_P1;SDS_P2;PMS_P1;PMS_P2;Temp;Humidity;BMP_temperature;BMP_pressure;BME280_temperature;BME280_humidity;BME280_pressure;Samples;Min_cycle;Max_cycle;Signal;HPM_P1;HPM_P2
2023/06/14 00:00:57;;;;;;;10.38;7.00;;;;;;;16.54;88.73;93663.09;5104449;28;20020;-85
2023/06/14 00:03:24;;;;;;;8.57;5.30;;;;;;;16.60;89.22;93668.97;5105715;28;20046;-89
2023/06/14 00:05:50;;;;;;;11.75;5.47;;;;;;;16.56;87.89;93668.91;5105602;28;20348;-88
2023/06/14 00:08:15;;;;;;;12.25;5.10;;;;;;;16.58;87.68;93663.94;5106014;28;20024;-89
2023/06/14 00:10:41;;;;;;;9.27;5.78;;;;;;;16.60;87.82;93655.53;5105928;28;20026;-89
2023/06/14 00:13:08;;;;;;;9.88;6.22;;;;;;;16.64;89.03;93657.16;5105364;28;20043;-87
2023/06/14 00:15:34;;;;;;;10.85;6.90;;;;;;;16.69;89.56;93666.06;5105242;28;20020;-87
2023/06/14 00:18:00;;;;;;;7.85;5.72;;;;;;;16.74;89.74;93663.09;5104979;28;20250;-86
2023/06/14 00:20:30;;;;;;;11.73;5.60;;;;;;;16.77;89.53;93654.28;5105104;28;20035;-85
2023/06/14 00:22:56;;;;;;;13.93;5.65;;;;;;;16.78;89.79;93658.56;5105544;28;20048;-87
2023/06/14 00:25:25;;;;;;;9.00;6.18;;;;;;;16.79;90.29;93644.75;5104912;28;20030;-87
2023/06/14 00:27:51;;;;;;;11.68;6.10;;;;;;;16.82;90.56;93654.03;5104614;28;20027;-86
2023/06/14 00:30:17;;;;;;;9.48;6.15;;;;;;;16.84;89.87;93659.84;5104435;28;20031;-87
2023/06/14 00:32:43;;;;;;;8.15;5.95;;;;;;;16.86;89.33;93656.81;5103294;28;20056;-86
2023/06/14 00:35:09;;;;;;;18.50;6.30;;;;;;;16.89;88.96;93648.78;5103859;28;20201;-86
2023/06/14 00:37:35;;;;;;;9.05;6.45;;;;;;;16.89;88.93;93653.38;5104458;28;20024;-88
2023/06/14 00:40:01;;;;;;;9.75;6.38;;;;;;;16.88;88.63;93644.53;5104384;28;20099;-87
2023/06/14 00:42:28;;;;;;;7.53;6.03;;;;;;;16.84;87.87;93647.16;5104339;28;20381;-86
2023/06/14 00:44:54;;;;;;;9.90;5.75;;;;;;;16.79;88.30;93644.75;5104353;28;20016;-86
2023/06/14 00:47:20;;;;;;;10.45;6.03;;;;;;;16.81;89.62;93647.09;5104230;28;20028;-86
2023/06/14 00:49:47;;;;;;;10.55;6.25;;;;;;;16.78;89.27;93642.41;5104016;28;20020;-86
2023/06/14 00:52:14;;;;;;;9.38;5.65;;;;;;;16.74;89.27;93636.19;5104716;28;20024;-86
2023/06/14 00:54:43;;;;;;;10.27;5.82;;;;;;;16.73;89.15;93631.94;5103445;28;20031;-86
2023/06/14 00:57:10;;;;;;;10.10;6.15;;;;;;;16.75;88.63;93643.91;5103582;28;20028;-86
2023/06/14 00:59:41;;;;;;;10.85;5.68;;;;;;;16.76;88.24;93639.28;5104088;28;20082;-85
2023/06/14 01:02:07;;;;;;;11.40;5.37;;;;;;;16.76;88.23;93628.53;5103514;28;20024;-86
2023/06/14 01:04:57;;;;;;;7.80;5.30;;;;;;;16.78;87.94;93632.41;5104436;28;20292;-86
2023/06/14 01:07:24;;;;;;;9.57;6.10;;;;;;;16.80;87.66;93630.16;5103146;28;20035;-87
2023/06/14 01:10:01;;;;;;;18.27;6.05;;;;;;;16.82;87.80;93632.50;5102421;28;20028;-87
2023/06/14 01:12:53;;;;;;;8.18;5.63;;;;;;;16.83;88.11;93636.75;5102418;28;20024;-87
2023/06/14 01:15:20;;;;;;;9.27;5.97;;;;;;;16.82;87.80;93637.91;5104229;28;20034;-87
2023/06/14 01:17:51;;;;;;;10.65;5.18;;;;;;;16.79;88.03;93634.00;5104155;28;20057;-87
2023/06/14 01:20:20;;;;;;;7.90;5.22;;;;;;;16.78;88.21;93642.41;5104203;28;20023;-86
2023/06/14 01:22:55;;;;;;;7.47;4.88;;;;;;;16.75;88.19;93635.84;5104293;28;20035;-87
2023/06/14 01:25:22;;;;;;;8.85;5.60;;;;;;;16.75;88.08;93638.53;5104193;28;20117;-87
2023/06/14 01:27:54;;;;;;;11.13;5.63;;;;;;;16.75;87.42;93638.53;5104386;28;20368;-87
2023/06/14 01:30:22;;;;;;;11.38;5.38;;;;;;;16.75;87.49;93635.84;5104164;28;20063;-86
2023/06/14 01:32:50;;;;;;;8.80;5.80;;;;;;;16.77;87.98;93628.19;5104140;28;20247;-86
2023/06/14 01:35:16;;;;;;;7.43;5.03;;;;;;;16.78;88.21;93628.94;5103849;28;20068;-85
2023/06/14 01:37:43;;;;;;;8.18;5.63;;;;;;;16.78;88.10;93628.94;5103847;28;20046;-84
2023/06/14 01:40:10;;;;;;;8.93;5.72;;;;;;;16.79;88.19;93639.38;5104055;28;20276;-86
2023/06/14 01:42:37;;;;;;;6.57;5.07;;;;;;;16.80;88.50;93632.06;5103808;28;20020;-85
2023/06/14 01:45:05;;;;;;;9.32;5.13;;;;;;;16.80;88.55;93629.38;5103980;28;20073;-86
2023/06/14 01:47:32;;;;;;;6.68;5.30;;;;;;;16.81;88.85;93628.25;5103851;28;20107;-85
2023/06/14 01:49:58;;;;;;;8.07;4.95;;;;;;;16.81;88.66;93630.94;5103843;28;20047;-86
2023/06/14 01:52:24;;;;;;;8.20;5.60;;;;;;;16.81;88.52;93633.63;5104091;28;20017;-87
2023/06/14 01:54:50;;;;;;;8.60;4.97;;;;;;;16.81;88.06;93636.31;5103332;28;20023;-85
2023/06/14 01:57:15;;;;;;;10.98;5.32;;;;;;;16.81;87.92;93636.31;5103573;28;20032;-85
2023/06/14 01:59:41;;;;;;;7.70;5.63;;;;;;;16.79;87.81;93641.25;5103686;28;20159;-86
2023/06/14 02:02:06;;;;;;;11.63;5.22;;;;;;;16.78;88.60;93642.41;5103838;28;20028;-86
2023/06/14 02:04:34;;;;;;;8.38;4.97;;;;;;;16.71;86.55;93644.97;5103757;28;20046;-86
2023/06/14 02:07:00;;;;;;;7.78;5.28;;;;;;;16.59;86.59;93635.16;5103575;28;20095;-86
2023/06/14 02:09:25;;;;;;;6.85;4.82;;;;;;;16.53;86.59;93647.34;5103592;28;20047;-85
2023/06/14 02:11:51;;;;;;;10.63;4.78;;;;;;;16.45;87.06;93647.19;5120087;28;20039;-85
2023/06/14 02:14:17;;;;;;;8.10;4.78;;;;;;;16.39;87.24;93647.84;5107742;28;20034;-86
2023/06/14 02:16:48;;;;;;;7.57;5.50;;;;;;;16.38;87.80;93662.41;5107511;28;20028;-86
2023/06/14 02:19:16;;;;;;;9.63;6.85;;;;;;;16.38;88.72;93667.78;5107278;28;20035;-86
2023/06/14 02:21:42;;;;;;;9.45;5.90;;;;;;;16.39;88.83;93666.66;5107019;28;20241;-87
2023/06/14 02:24:07;;;;;;;12.35;5.63;;;;;;;16.39;89.22;93659.38;5107005;28;20023;-87
2023/06/14 02:26:32;;;;;;;7.07;5.43;;;;;;;16.37;89.21;93667.00;5107069;28;20260;-86
2023/06/14 02:29:01;;;;;;;19.45;4.53;;;;;;;16.35;89.52;93668.50;5107109;28;20322;-85
2023/06/14 02:31:27;;;;;;;7.65;4.93;;;;;;;16.33;90.31;93665.38;5107426;28;20059;-86
2023/06/14 02:33:52;;;;;;;15.23;4.95;;;;;;;16.36;90.19;93664.66;5107408;28;20024;-88
2023/06/14 02:36:18;;;;;;;8.90;4.95;;;;;;;16.34;90.04;93661.56;5106833;28;20036;-86
2023/06/14 02:38:43;;;;;;;11.80;4.63;;;;;;;16.31;89.32;93659.59;5107430;28;20032;-88
2023/06/14 02:41:09;;;;;;;7.35;5.03;;;;;;;16.24;89.43;93658.31;5105359;28;20051;-85
2023/06/14 02:43:35;;;;;;;8.73;5.15;;;;;;;16.25;90.18;93662.53;5105135;28;20058;-85
2023/06/14 02:46:03;;;;;;;8.18;5.63;;;;;;;16.28;90.56;93671.03;5108249;28;20045;-89
2023/06/14 02:48:31;;;;;;;9.35;5.22;;;;;;;16.25;90.77;93665.22;5112788;28;20016;-87
2023/06/14 02:51:55;;;;;;;6.85;5.05;;;;;;;16.28;91.06;93657.59;5112452;28;20023;-87
2023/06/14 02:54:27;;;;;;;8.45;5.70;;;;;;;16.28;91.35;93668.34;5112241;28;20036;-86
2023/06/14 02:57:07;;;;;;;11.20;5.45;;;;;;;16.30;91.11;93666.09;5112945;28;20122;-87
2023/06/14 03:00:05;;;;;;;23.30;5.28;;;;;;;16.27;91.23;93666.81;5112432;28;20023;-88
2023/06/14 03:02:30;;;;;;;8.93;5.05;;;;;;;16.25;91.56;93659.84;5108234;28;20102;-87
2023/06/14 03:05:08;;;;;;;7.05;5.38;;;;;;;16.29;91.92;93664.53;5106532;28;20035;-87
2023/06/14 03:07:44;;;;;;;9.15;5.65;;;;;;;16.32;91.99;93669.19;5105436;28;20027;-87
2023/06/14 03:10:13;;;;;;;8.32;5.43;;;;;;;16.29;91.64;93665.31;5105265;28;20263;-86
2023/06/14 03:12:41;;;;;;;9.93;5.60;;;;;;;16.30;90.88;93668.78;5106141;28;20038;-86
2023/06/14 03:15:14;;;;;;;9.18;5.20;;;;;;;16.27;90.93;93681.03;5105595;28;20111;-86
2023/06/14 03:17:49;;;;;;;16.23;5.78;;;;;;;16.29;91.12;93678.00;5106275;28;20024;-87
2023/06/14 03:20:24;;;;;;;8.30;5.40;;;;;;;16.33;91.38;93671.53;5105482;28;20095;-88
2023/06/14 03:23:09;;;;;;;;;;;;;;;;;;;;;
2023/06/14 03:25:38;;;;;;;10.63;5.53;;;;;;;16.34;91.22;93677.69;5105021;28;20058;-86
2023/06/14 03:28:11;;;;;;;8.18;5.60;;;;;;;16.37;90.96;93674.31;5106024;28;20061;-86
2023/06/14 03:30:39;;;;;;;9.30;5.18;;;;;;;16.39;91.03;93672.81;5106067;28;20031;-86
2023/06/14 03:33:13;;;;;;;9.32;5.10;;;;;;;16.38;89.63;93673.16;5104812;28;20027;-86
2023/06/14 03:35:41;;;;;;;11.55;5.15;;;;;;;16.38;90.54;93683.91;5104781;28;20032;-87
2023/06/14 03:38:06;;;;;;;12.15;5.07;;;;;;;16.42;90.47;93690.16;5106033;28;20080;-86
2023/06/14 03:40:32;;;;;;;7.45;5.53;;;;;;;16.42;90.13;93685.56;5105756;28;20024;-85
2023/06/14 03:42:57;;;;;;;7.15;5.40;;;;;;;16.41;89.49;93691.28;5105680;28;20077;-85
2023/06/14 03:45:23;;;;;;;7.30;4.95;;;;;;;16.41;89.64;93688.59;5105619;28;20012;-86
2023/06/14 03:47:58;;;;;;;12.77;5.07;;;;;;;16.31;90.51;93694.56;5105380;28;20024;-86
2023/06/14 03:50:23;;;;;;;14.68;5.80;;;;;;;16.30;91.32;93687.59;5105023;28;20044;-85
2023/06/14 03:53:01;;;;;;;10.48;5.47;;;;;;;16.27;91.68;93688.31;5105557;28;20031;-84
2023/06/14 03:55:29;;;;;;;10.00;5.97;;;;;;;16.30;92.21;93692.97;5104893;28;20250;-85
2023/06/14 03:58:02;;;;;;;7.90;4.82;;;;;;;16.34;92.30;93688.44;5105441;28;20325;-85
2023/06/14 04:00:27;;;;;;;7.05;4.70;;;;;;;16.38;92.05;93697.38;5104692;28;20016;-86
2023/06/14 04:02:56;;;;;;;8.05;5.15;;;;;;;16.37;91.13;93695.81;5105384;28;20046;-86
2023/06/14 04:05:21;;;;;;;8.23;5.90;;;;;;;16.40;90.77;93698.56;5105363;28;20012;-85
2023/06/14 04:07:48;;;;;;;5.85;4.82;;;;;;;16.40;90.39;93687.03;5104352;28;20027;-86
2023/06/14 04:10:15;;;;;;;18.83;5.90;;;;;;;16.40;90.07;93697.78;5105277;28;20024;-85
2023/06/14 04:12:40;;;;;;;13.25;6.55;;;;;;;16.41;90.00;93702.06;5105267;28;20047;-86
2023/06/14 04:15:08;;;;;;;17.33;6.38;;;;;;;16.39;90.37;93698.94;5105020;28;20019;-86
2023/06/14 04:17:33;;;;;;;7.38;4.82;;;;;;;16.39;90.31;93688.19;5105255;28;20020;-86
2023/06/14 04:20:09;;;;;;;7.20;5.25;;;;;;;16.39;89.73;93698.94;5105324;28;20363;-85
2023/06/14 04:22:36;;;;;;;9.77;5.30;;;;;;;16.41;89.79;93692.06;5106987;28;20102;-85
2023/06/14 04:25:02;;;;;;;8.98;5.70;;;;;;;16.41;90.46;93702.06;5104720;28;20089;-85
2023/06/14 04:27:30;;;;;;;13.15;6.10;;;;;;;16.46;90.82;93699.06;5103750;28;20246;-85
2023/06/14 04:30:02;;;;;;;9.75;5.38;;;;;;;16.50;90.54;93697.22;5104913;28;20012;-85
2023/06/14 04:32:33;;;;;;;8.35;5.10;;;;;;;16.54;89.49;93690.00;5105017;28;20209;-85
2023/06/14 04:35:01;;;;;;;9.07;5.07;;;;;;;16.55;89.19;93696.97;5103819;28;20024;-85
2023/06/14 04:37:29;;;;;;;8.30;6.38;;;;;;;16.63;88.61;93698.66;5104602;28;20031;-86
2023/06/14 04:39:55;;;;;;;16.17;6.35;;;;;;;16.67;88.12;93704.13;5104631;28;20034;-85
2023/06/14 04:42:24;;;;;;;12.02;6.93;;;;;;;16.68;87.55;93702.97;5103734;28;20031;-86
2023/06/14 04:44:51;;;;;;;10.90;7.30;;;;;;;16.64;87.63;93692.13;5104397;28;20024;-86
2023/06/14 04:47:17;;;;;;;10.77;7.75;;;;;;;16.73;87.09;93697.31;5105205;28;20039;-89
2023/06/14 04:49:42;;;;;;;13.60;7.72;;;;;;;16.83;87.01;93704.03;5104842;28;20028;-89
2023/06/14 04:52:10;;;;;;;13.02;8.05;;;;;;;16.94;86.52;93705.03;5104278;28;20028;-85
2023/06/14 04:54:37;;;;;;;18.42;9.80;;;;;;;17.02;85.64;93705.94;5103921;28;20016;-83
2023/06/14 04:57:04;;;;;;;15.18;8.77;;;;;;;17.11;85.62;93700.31;5104361;28;20036;-85
2023/06/14 04:59:33;;;;;;;11.48;7.95;;;;;;;17.20;85.18;93703.56;5103563;28;20070;-84
2023/06/14 05:01:59;;;;;;;12.95;8.15;;;;;;;17.30;84.65;93704.88;5104465;28;20087;-85
2023/06/14 05:04:28;;;;;;;12.07;7.70;;;;;;;17.39;84.33;93711.59;5104408;28;20095;-84
2023/06/14 05:06:54;;;;;;;16.58;9.23;;;;;;;17.49;83.69;93717.53;5104166;28;20054;-84
2023/06/14 05:09:20;;;;;;;14.38;8.52;;;;;;;17.63;83.16;93717.75;5104170;28;20051;-85
2023/06/14 05:11:50;;;;;;;18.30;11.52;;;;;;;17.73;82.38;93709.06;5104482;28;20028;-85
2023/06/14 05:14:18;;;;;;;15.30;8.98;;;;;;;17.86;82.27;93715.03;5104288;28;20035;-85
2023/06/14 05:16:50;;;;;;;14.13;8.50;;;;;;;17.94;81.63;93715.94;5104144;28;20121;-84
2023/06/14 05:19:18;;;;;;;18.27;8.80;;;;;;;18.10;80.85;93718.47;5104217;28;20032;-85
2023/06/14 05:21:44;;;;;;;16.50;8.20;;;;;;;18.30;80.00;93721.81;5103884;28;20036;-83
2023/06/14 05:24:14;;;;;;;11.82;8.55;;;;;;;18.43;76.32;93723.16;5104094;28;20214;-85
2023/06/14 05:26:40;;;;;;;11.52;8.30;;;;;;;18.40;76.72;93721.97;5104074;28;20282;-85
2023/06/14 05:29:08;;;;;;;17.13;8.43;;;;;;;18.36;76.43;93733.84;5104111;28;20047;-86
2023/06/14 05:31:45;;;;;;;17.05;8.95;;;;;;;18.36;76.92;93736.53;5104100;28;20095;-84
2023/06/14 05:34:31;;;;;;;15.80;9.45;;;;;;;18.35;76.92;93741.16;5103948;28;20091;-85
2023/06/14 05:37:19;;;;;;;13.65;8.07;;;;;;;18.39;76.46;93735.84;5103618;28;20032;-85
2023/06/14 05:39:47;;;;;;;18.45;8.23;;;;;;;18.59;77.07;93734.53;5104119;28;20099;-85
2023/06/14 05:42:23;;;;;;;;;;;;;;;;;;;;;
2023/06/14 05:45:04;;;;;;;;;;;;;;;;;;;;;
2023/06/14 05:47:50;;;;;;;15.90;9.50;;;;;;;19.33;75.65;93743.13;5106096;28;20047;-87
2023/06/14 05:50:34;;;;;;;14.70;7.97;;;;;;;19.53;75.82;93751.81;5108544;28;20023;-88
2023/06/14 05:53:35;;;;;;;13.25;8.43;;;;;;;19.58;70.90;93749.53;5108573;28;20069;-90
2023/06/14 05:56:06;;;;;;;10.65;6.75;;;;;;;19.41;70.07;93755.53;5106815;28;20032;-89
2023/06/14 05:58:41;;;;;;;10.85;8.20;;;;;;;19.22;70.79;93745.72;5108490;28;20065;-90
2023/06/14 06:01:21;;;;;;;15.30;9.18;;;;;;;19.01;71.85;93755.16;5108764;28;20024;-92
2023/06/14 06:03:57;;;;;;;23.00;10.07;;;;;;;18.92;74.45;93760.03;5108953;28;20030;-90
2023/06/14 06:06:38;;;;;;;18.98;10.98;;;;;;;18.87;75.40;93754.97;5107152;28;20012;-89
2023/06/14 06:09:16;;;;;;;14.52;9.32;;;;;;;18.71;75.51;93757.84;5124347;28;20024;-92
2023/06/14 06:11:55;;;;;;;16.90;10.65;;;;;;;18.61;76.17;93758.47;5107250;28;20019;-88
2023/06/14 06:14:20;;;;;;;22.65;9.93;;;;;;;18.43;77.38;93759.00;5106468;28;20016;-90
2023/06/14 06:19:40;;;;;;;23.73;10.02;;;;;;;18.25;77.54;93753.38;5107625;28;20027;-88
2023/06/14 06:22:10;;;;;;;27.52;11.30;;;;;;;18.14;77.11;93749.75;5123851;28;20045;-90
2023/06/14 06:24:45;;;;;;;14.65;9.68;;;;;;;18.14;78.19;93771.31;5108080;28;20016;-90
2023/06/14 06:27:12;;;;;;;17.38;10.80;;;;;;;18.08;78.91;93763.91;5106406;28;20047;-89
2023/06/14 06:29:48;;;;;;;20.05;11.05;;;;;;;18.01;79.42;93765.38;5107114;28;20024;-89
2023/06/14 06:32:14;;;;;;;19.35;12.15;;;;;;;17.98;80.88;93768.78;5106844;28;20028;-85
2023/06/14 06:34:59;;;;;;;;;;;;;;;;;;;;;
2023/06/14 06:37:25;;;;;;;21.33;11.68;;;;;;;17.97;81.03;93777.22;5107404;28;20047;-89
2023/06/14 06:39:52;;;;;;;21.85;11.70;;;;;;;18.00;81.20;93768.41;5109416;28;20027;-92
2023/06/14 06:42:26;;;;;;;18.40;12.23;;;;;;;18.13;80.33;93772.44;5107756;28;20019;-89
2023/06/14 06:44:51;;;;;;;20.67;11.48;;;;;;;18.21;79.96;93774.13;5106341;28;20320;-86
2023/06/14 06:47:17;;;;;;;28.80;11.13;;;;;;;18.32;80.68;93768.09;5104326;28;20023;-83
2023/06/14 06:49:48;;;;;;;18.67;11.05;;;;;;;18.41;79.91;93771.31;5105582;28;20047;-79
2023/06/14 06:52:13;;;;;;;20.70;11.43;;;;;;;18.47;78.52;93783.34;5105161;28;20027;-79
2023/06/14 06:54:39;;;;;;;22.95;11.50;;;;;;;18.48;78.49;93774.13;5104074;28;20091;-79
2023/06/14 06:57:06;;;;;;;27.02;12.20;;;;;;;18.51;77.86;93778.00;5103969;28;20252;-80
2023/06/14 06:59:31;;;;;;;21.45;11.45;;;;;;;18.54;77.61;93774.56;5104332;28;20218;-84
2023/06/14 07:01:57;;;;;;;20.13;11.15;;;;;;;18.63;77.49;93772.38;5103789;28;20016;-87
2023/06/14 07:04:23;;;;;;;17.48;11.55;;;;;;;18.72;77.32;93775.56;5104828;28;20259;-89
2023/06/14 07:06:48;;;;;;;19.92;11.65;;;;;;;18.99;77.70;93787.16;5105803;28;20187;-87
2023/06/14 07:09:15;;;;;;;18.25;11.02;;;;;;;19.29;77.30;93767.38;5106089;28;20030;-89
2023/06/14 07:11:42;;;;;;;18.02;11.02;;;;;;;19.49;74.28;93780.72;5105963;28;20034;-88
2023/06/14 07:14:08;;;;;;;24.88;11.15;;;;;;;19.62;73.64;93782.78;5104299;28;20020;-88
2023/06/14 07:16:33;;;;;;;18.48;11.93;;;;;;;19.71;71.41;93774.41;5106183;28;20103;-89
2023/06/14 07:19:00;;;;;;;29.92;11.38;;;;;;;19.79;71.66;93776.00;5121484;28;20237;-86
2023/06/14 07:21:26;;;;;;;24.20;11.57;;;;;;;19.93;73.63;93780.00;5105546;28;20031;-87
2023/06/14 07:23:54;;;;;;;20.63;11.65;;;;;;;20.13;73.28;93775.91;5105541;28;20052;-87
2023/06/14 07:26:20;;;;;;;16.67;10.23;;;;;;;20.36;72.64;93774.91;5106101;28;20020;-88
2023/06/14 07:28:47;;;;;;;14.75;9.68;;;;;;;20.61;71.30;93766.94;5121914;28;20031;-86
2023/06/14 07:31:13;;;;;;;21.42;12.18;;;;;;;20.82;68.36;93760.84;5105898;28;20058;-89
2023/06/14 07:33:39;;;;;;;21.83;10.65;;;;;;;21.03;68.30;93769.06;5105991;28;20016;-87
2023/06/14 07:36:05;;;;;;;19.05;10.70;;;;;;;21.14;66.68;93773.75;5105302;28;20028;-90
2023/06/14 07:38:33;;;;;;;21.42;11.75;;;;;;;21.08;67.05;93769.84;5105840;28;20325;-89
2023/06/14 07:41:02;;;;;;;17.95;11.18;;;;;;;20.86;66.85;93769.00;5106205;28;20183;-87
2023/06/14 07:43:40;;;;;;;;;;;;;;;;;;;;;
2023/06/14 07:46:19;;;;;;;19.35;11.10;;;;;;;20.97;68.48;93762.47;5105685;28;20044;-89
2023/06/14 07:48:55;;;;;;;15.38;11.05;;;;;;;21.03;67.90;93769.06;5122390;28;20070;-89
2023/06/14 07:51:23;;;;;;;20.83;12.18;;;;;;;21.01;66.52;93765.97;5121449;28;20035;-88
2023/06/14 07:54:10;;;;;;;;;;;;;;;;;;;;;
2023/06/14 07:57:02;;;;;;;19.88;10.38;;;;;;;21.13;67.91;93777.63;5106253;28;20047;-88
2023/06/14 07:59:40;;;;;;;15.17;10.00;;;;;;;21.12;65.94;93782.25;5105787;28;20019;-90
2023/06/14 08:02:16;;;;;;;;;;;;;;;;;;;;;
2023/06/14 08:04:47;;;;;;;18.80;10.18;;;;;;;21.23;65.44;93785.03;5102390;28;20074;-87
2023/06/14 08:07:23;;;;;;;;;;;;;;;;;;;;;
2023/06/14 08:09:53;;;;;;;18.85;10.45;;;;;;;21.22;65.27;93795.06;5103581;28;20074;-91
2023/06/14 08:12:24;;;;;;;19.92;10.75;;;;;;;21.10;64.99;93800.06;5121391;28;20107;-88
2023/06/14 08:14:54;;;;;;;14.40;10.17;;;;;;;21.03;64.62;93807.00;5104708;28;20016;-89
2023/06/14 08:17:27;;;;;;;22.63;10.85;;;;;;;21.17;64.68;93805.53;5104991;28;20012;-88
2023/06/14 08:20:07;;;;;;;17.63;11.30;;;;;;;21.37;63.86;93804.03;5105352;28;20252;-88
2023/06/14 08:22:36;;;;;;;23.83;10.35;;;;;;;21.35;64.20;93806.34;5104702;28;20047;-87
2023/06/14 08:25:12;;;;;;;18.70;10.95;;;;;;;21.50;63.75;93806.44;5104863;28;20036;-89
2023/06/14 08:27:40;;;;;;;19.95;10.32;;;;;;;21.55;63.73;93804.09;5120419;28;20263;-87
2023/06/14 08:30:27;;;;;;;;;;;;;;;;;;;;;
2023/06/14 08:32:55;;;;;;;21.08;10.07;;;;;;;21.67;62.44;93811.09;5103040;28;20063;-88
2023/06/14 08:35:21;;;;;;;21.70;11.25;;;;;;;21.75;63.32;93812.66;5104044;28;20051;-88
2023/06/14 08:37:53;;;;;;;13.73;9.93;;;;;;;21.79;62.71;93808.03;5104573;28;20031;-85
2023/06/14 08:40:21;;;;;;;17.05;10.15;;;;;;;21.89;62.51;93805.72;5104401;28;20032;-86
2023/06/14 08:43:07;;;;;;;21.17;10.68;;;;;;;21.85;61.96;93808.41;5103980;28;20046;-89
2023/06/14 08:45:37;;;;;;;27.63;10.82;;;;;;;21.93;62.78;93806.50;5103921;28;20020;-88
2023/06/14 08:48:16;;;;;;;;;;;;;;;;;;;;;
2023/06/14 08:50:43;;;;;;;18.42;10.43;;;;;;;22.31;61.48;93798.75;5104322;28;20032;-86
2023/06/14 08:53:22;;;;;;;13.65;9.90;;;;;;;22.30;60.37;93795.28;5120370;28;20024;-88
2023/06/14 08:55:53;;;;;;;22.33;11.48;;;;;;;22.32;60.95;93789.47;5104268;28;20083;-86
2023/06/14 08:58:24;;;;;;;22.42;10.65;;;;;;;22.40;62.19;93791.00;5102721;28;20027;-87
2023/06/14 09:00:52;;;;;;;20.30;10.45;;;;;;;22.57;62.41;93795.66;5103748;28;20016;-87
2023/06/14 09:03:23;;;;;;;25.02;11.05;;;;;;;22.51;60.62;93791.78;5103830;28;20016;-87
2023/06/14 09:06:02;;;;;;;;;;;;;;;;;;;;;
2023/06/14 09:08:45;;;;;;;;;;;;;;;;;;;;;
2023/06/14 09:11:16;;;;;;;16.35;9.93;;;;;;;23.10;58.94;93788.53;5103002;28;20066;-89
2023/06/14 09:13:54;;;;;;;17.90;9.70;;;;;;;23.12;58.70;93785.41;5104015;28;20043;-91
2023/06/14 09:16:33;;;;;;;20.70;10.45;;;;;;;23.31;58.73;93787.66;5103429;28;20032;-89
2023/06/14 09:18:58;;;;;;;15.93;10.00;;;;;;;23.54;57.83;93792.59;5119681;28;20273;-88
2023/06/14 09:21:36;;;;;;;16.52;9.52;;;;;;;23.79;58.58;93788.97;5103460;28;20023;-87
2023/06/14 09:24:15;;;;;;;18.02;9.93;;;;;;;23.98;56.27;93784.97;5102415;28;20031;-88
2023/06/14 09:26:41;;;;;;;18.50;9.95;;;;;;;23.98;54.53;93791.19;5103550;28;20028;-85
2023/06/14 09:29:16;;;;;;;18.27;9.95;;;;;;;23.76;56.06;93782.34;5103690;28;20030;-85
2023/06/14 09:31:42;;;;;;;16.80;9.32;;;;;;;23.67;56.84;93776.59;5103620;28;20057;-86
2023/06/14 09:34:16;;;;;;;18.50;9.85;;;;;;;23.69;57.15;93785.13;5103304;28;20039;-85
2023/06/14 09:36:42;;;;;;;16.08;9.43;;;;;;;23.90;56.04;93786.19;5101450;28;20046;-85
2023/06/14 09:39:08;;;;;;;13.52;9.57;;;;;;;24.07;54.10;93788.00;5103152;28;20244;-85
2023/06/14 09:41:39;;;;;;;16.65;10.02;;;;;;;24.18;54.28;93780.53;5103158;28;20336;-85
2023/06/14 09:44:06;;;;;;;16.92;11.10;;;;;;;24.29;54.12;93776.94;5102967;28;20035;-85
2023/06/14 09:46:33;;;;;;;13.82;9.35;;;;;;;24.48;54.45;93779.06;5103254;28;20129;-85
2023/06/14 09:48:59;;;;;;;15.93;10.43;;;;;;;24.61;52.62;93771.97;5103298;28;20024;-85
2023/06/14 09:51:26;;;;;;;16.08;10.02;;;;;;;24.62;52.19;93773.50;5104396;28;20091;-85
2023/06/14 09:53:53;;;;;;;22.45;10.68;;;;;;;24.69;53.03;93774.63;5103904;28;20031;-85
2023/06/14 09:56:29;;;;;;;17.23;8.70;;;;;;;24.79;53.55;93771.00;5103056;28;20028;-85
2023/06/14 09:58:56;;;;;;;15.00;10.40;;;;;;;24.77;52.18;93776.09;5103001;28;20036;-85
2023/06/14 10:01:25;;;;;;;17.33;9.52;;;;;;;24.72;53.06;93760.97;5102977;28;20259;-87
2023/06/14 10:03:51;;;;;;;17.30;9.73;;;;;;;24.66;53.99;93765.31;5103025;28;20099;-85
2023/06/14 10:06:17;;;;;;;17.50;8.88;;;;;;;24.66;54.21;93761.81;5103072;28;20031;-84
2023/06/14 10:08:43;;;;;;;16.02;9.02;;;;;;;24.73;53.96;93750.84;5102935;28;20218;-85
2023/06/14 10:11:11;;;;;;;27.30;10.07;;;;;;;24.85;53.84;93742.13;5102778;28;20451;-87
2023/06/14 10:13:37;;;;;;;21.13;10.20;;;;;;;24.95;53.44;93748.63;5102784;28;20024;-86
2023/06/14 10:16:09;;;;;;;17.45;10.48;;;;;;;25.00;52.79;93748.22;5102650;28;20020;-87
2023/06/14 10:18:44;;;;;;;18.38;10.25;;;;;;;24.94;51.83;93749.84;5102897;28;20097;-86
2023/06/14 10:21:44;;;;;;;13.48;9.95;;;;;;;24.96;52.82;93734.59;5102777;28;20031;-85
2023/06/14 10:24:15;;;;;;;14.15;8.75;;;;;;;25.09;52.47;93739.53;5102792;28;20032;-86
2023/06/14 10:26:51;;;;;;;19.30;8.88;;;;;;;25.09;52.34;93736.78;5101618;28;20368;-86
2023/06/14 10:29:17;;;;;;;14.85;9.90;;;;;;;25.18;52.50;93740.56;5102925;28;20020;-86
2023/06/14 10:31:50;;;;;;;13.13;9.20;;;;;;;25.34;51.88;93744.69;5101423;28;20244;-86
2023/06/14 10:34:25;;;;;;;16.65;10.05;;;;;;;25.46;52.42;93741.38;5104590;28;20243;-87
2023/06/14 10:37:12;;;;;;;24.13;9.75;;;;;;;25.62;53.15;93748.97;5106147;28;20345;-88
2023/06/14 10:39:44;;;;;;;20.55;9.63;;;;;;;25.69;49.91;93727.03;5106625;28;20047;-88
2023/06/14 10:42:10;;;;;;;14.10;10.18;;;;;;;25.83;50.09;93736.97;5106387;28;20032;-89
2023/06/14 10:44:42;;;;;;;14.13;9.10;;;;;;;25.95;49.25;93735.63;5106456;28;20081;-89
2023/06/14 10:47:26;;;;;;;16.65;9.10;;;;;;;26.00;48.93;93729.72;5106868;28;20031;-89
2023/06/14 10:50:08;;;;;;;18.30;8.70;;;;;;;26.04;48.95;93738.63;5105609;28;20096;-88
2023/06/14 10:52:37;;;;;;;18.65;9.68;;;;;;;26.15;49.19;93733.75;5106433;28;20016;-90
2023/06/14 10:55:22;;;;;;;17.80;9.48;;;;;;;26.15;49.71;93719.31;5105293;28;20242;-89
2023/06/14 10:57:58;;;;;;;14.75;9.65;;;;;;;26.23;49.65;93713.31;5105606;28;20026;-88
2023/06/14 11:00:28;;;;;;;14.65;8.25;;;;;;;26.23;48.64;93709.81;5106626;28;20055;-89
2023/06/14 11:03:13;;;;;;;20.35;7.85;;;;;;;26.28;47.66;93705.84;5106286;28;20336;-89
2023/06/14 11:05:53;;;;;;;15.00;8.10;;;;;;;26.36;49.79;93708.03;5105480;28;20385;-90
2023/06/14 11:08:37;;;;;;;16.05;7.93;;;;;;;26.46;47.05;93711.75;5106259;28;20103;-90
2023/06/14 11:11:17;;;;;;;13.55;8.50;;;;;;;26.42;47.14;93694.66;5105263;28;20069;-89
2023/06/14 11:14:02;;;;;;;14.32;8.88;;;;;;;26.30;47.17;93703.47;5106042;28;20015;-91
2023/06/14 11:16:38;;;;;;;;;;;;;;;;;;;;;
2023/06/14 11:19:06;;;;;;;17.02;8.68;;;;;;;25.97;51.10;93698.56;5103041;28;20055;-90
2023/06/14 11:21:49;;;;;;;11.55;7.85;;;;;;;26.10;48.88;93695.22;5106554;28;20023;-89
2023/06/14 11:24:17;;;;;;;12.65;7.75;;;;;;;26.36;49.77;93690.88;5105705;28;20016;-88
2023/06/14 11:26:49;;;;;;;12.73;9.10;;;;;;;26.57;48.02;93687.75;5104490;28;20122;-87
2023/06/14 11:29:18;;;;;;;;;;;;;;;26.75;48.18;93690.16;5105429;28;20069;-88
2023/06/14 11:32:12;;;;;;;;;;;;;;;;;;;;;
2023/06/14 11:34:45;;;;;;;12.48;7.50;;;;;;;26.68;48.60;93690.28;5106215;28;20341;-89
2023/06/14 11:37:18;;;;;;;12.20;8.05;;;;;;;26.59;46.09;93690.84;5105176;28;20028;-88
2023/06/14 11:39:49;;;;;;;18.05;8.60;;;;;;;26.38;47.71;93689.25;5105391;28;20328;-89
2023/06/14 11:45:08;;;;;;;16.23;8.48;;;;;;;26.08;46.80;93689.41;5105673;28;20027;-88
2023/06/14 11:47:37;;;;;;;12.27;6.65;;;;;;;26.00;47.66;93675.09;5105130;28;20210;-87
2023/06/14 11:50:11;;;;;;;11.52;6.85;;;;;;;25.94;46.83;93674.81;5105023;28;20306;-89
2023/06/14 11:52:48;;;;;;;9.15;6.65;;;;;;;25.91;47.64;93672.91;5105062;28;20091;-87
2023/06/14 11:55:14;;;;;;;14.52;7.18;;;;;;;25.91;48.64;93667.47;5103802;28;20318;-86
2023/06/14 11:57:42;;;;;;;10.57;6.18;;;;;;;25.91;48.00;93666.66;5104966;28;20023;-86
2023/06/14 12:00:21;;;;;;;12.40;7.53;;;;;;;25.90;48.07;93662.41;5104882;28;20020;-87
2023/06/14 12:02:56;;;;;;;11.23;6.90;;;;;;;25.94;48.78;93657.66;5104683;28;20348;-89
2023/06/14 12:05:22;;;;;;;11.85;6.32;;;;;;;25.90;48.86;93663.16;5104146;28;20039;-89
2023/06/14 12:08:07;;;;;;;10.55;5.85;;;;;;;25.81;48.41;93650.03;5105578;28;20020;-90